sensor_id;sensor_type;location;lat;lon;timestamp;pressure;altitude;pressure_sealevel;temperature;humidity
46506;BME280;32220;49.808;9.968;2023-03-04T00:01:03;99464.09;;;-0.01;58.49
46506;BME280;32220;49.808;9.968;2023-03-04T00:03:31;99467.59;;;-0.02;58.50
46506;BME280;32220;49.808;9.968;2023-03-04T00:06:00;99462.41;;;-0.05;58.75
46506;BME280;32220;49.808;9.968;2023-03-04T00:08:28;99462.44;;;-0.11;59.18
46506;BME280;32220;49.808;9.968;2023-03-04T00:10:59;99455.56;;;-0.14;59.74
46506;BME280;32220;49.808;9.968;2023-03-04T00:13:27;99463.31;;;-0.12;59.63
46506;BME280;32220;49.808;9.968;2023-03-04T00:15:54;99463.38;;;-0.15;59.49
46506;BME280;32220;49.808;9.968;2023-03-04T00:18:22;99434.94;;;-0.37;59.49
46506;BME280;32220;49.808;9.968;2023-03-04T00:20:50;99463.44;;;-0.24;59.76
46506;BME280;32220;49.808;9.968;2023-03-04T00:23:19;99466.03;;;-0.23;59.65
46506;BME280;32220;49.808;9.968;2023-03-04T00:25:46;99453.09;;;-0.27;59.71
46506;BME280;32220;49.808;9.968;2023-03-04T00:28:14;99464.41;;;-0.31;60.06
46506;BME280;32220;49.808;9.968;2023-03-04T00:30:41;99467.00;;;-0.31;59.95
46506;BME280;32220;49.808;9.968;2023-03-04T00:33:09;99466.13;;;-0.33;60.08
46506;BME280;32220;49.808;9.968;2023-03-04T00:35:37;99416.16;;;-0.66;60.32
46506;BME280;32220;49.808;9.968;2023-03-04T00:38:04;99459.25;;;-0.38;61.27
46506;BME280;32220;49.808;9.968;2023-03-04T00:40:33;99450.66;;;-0.49;60.67
46506;BME280;32220;49.808;9.968;2023-03-04T00:43:01;99469.69;;;-0.41;60.93
46506;BME280;32220;49.808;9.968;2023-03-04T00:45:29;99471.44;;;-0.43;60.72
46506;BME280;32220;49.808;9.968;2023-03-04T00:47:57;99448.13;;;-0.56;60.82
46506;BME280;32220;49.808;9.968;2023-03-04T00:50:24;99462.84;;;-0.54;60.74
46506;BME280;32220;49.808;9.968;2023-03-04T00:52:52;99454.19;;;-0.54;61.17
46506;BME280;32220;49.808;9.968;2023-03-04T00:55:19;99468.00;;;-0.48;61.33
46506;BME280;32220;49.808;9.968;2023-03-04T00:57:48;99469.78;;;-0.50;61.42
46506;BME280;32220;49.808;9.968;2023-03-04T01:00:17;99463.72;;;-0.50;61.78
46506;BME280;32220;49.808;9.968;2023-03-04T01:02:44;99463.72;;;-0.52;61.67
46506;BME280;32220;49.808;9.968;2023-03-04T01:05:13;99453.34;;;-0.56;61.80
46506;BME280;32220;49.808;9.968;2023-03-04T01:07:41;99461.13;;;-0.55;61.85
46506;BME280;32220;49.808;9.968;2023-03-04T01:10:11;99451.63;;;-0.60;61.80
46506;BME280;32220;49.808;9.968;2023-03-04T01:12:39;99418.94;;;-0.89;62.12
46506;BME280;32220;49.808;9.968;2023-03-04T01:15:11;99464.63;;;-0.59;62.09
46506;BME280;32220;49.808;9.968;2023-03-04T01:17:40;99470.69;;;-0.61;61.79
46506;BME280;32220;49.808;9.968;2023-03-04T01:20:09;99466.38;;;-0.61;62.45
46506;BME280;32220;49.808;9.968;2023-03-04T01:22:37;99458.63;;;-0.65;62.51
46506;BME280;32220;49.808;9.968;2023-03-04T01:25:05;99461.19;;;-0.62;62.96
46506;BME280;32220;49.808;9.968;2023-03-04T01:27:33;99464.69;;;-0.65;62.79
46506;BME280;32220;49.808;9.968;2023-03-04T01:30:01;99464.69;;;-0.65;63.14
46506;BME280;32220;49.808;9.968;2023-03-04T01:32:31;99464.69;;;-0.66;63.49
46506;BME280;32220;49.808;9.968;2023-03-04T01:34:58;99459.50;;;-0.68;63.19
46506;BME280;32220;49.808;9.968;2023-03-04T01:37:26;99458.66;;;-0.70;63.74
46506;BME280;32220;49.808;9.968;2023-03-04T01:39:54;99454.31;;;-0.73;64.16
46506;BME280;32220;49.808;9.968;2023-03-04T01:42:23;99431.03;;;-0.86;63.94
46506;BME280;32220;49.808;9.968;2023-03-04T01:44:52;99435.34;;;-0.82;64.47
46506;BME280;32220;49.808;9.968;2023-03-04T01:47:28;99447.44;;;-0.75;64.46
46506;BME280;32220;49.808;9.968;2023-03-04T01:50:01;99456.09;;;-0.76;64.60
46506;BME280;32220;49.808;9.968;2023-03-04T01:52:29;99429.25;;;-0.78;66.77
46506;BME280;32220;49.808;9.968;2023-03-04T01:54:57;99439.66;;;-0.80;65.80
46506;BME280;32220;49.808;9.968;2023-03-04T01:57:25;99437.94;;;-0.81;65.68
46506;BME280;32220;49.808;9.968;2023-03-04T02:00:21;99419.78;;;-0.88;66.16
46506;BME280;32220;49.808;9.968;2023-03-04T02:02:51;99425.88;;;-0.88;66.21
46506;BME280;32220;49.808;9.968;2023-03-04T02:05:21;99427.59;;;-0.87;65.77
46506;BME280;32220;49.808;9.968;2023-03-04T02:07:51;99434.47;;;-0.84;65.70
46506;BME280;32220;49.808;9.968;2023-03-04T02:10:19;99414.63;;;-0.91;66.25
46506;BME280;32220;49.808;9.968;2023-03-04T02:12:47;99425.78;;;-0.80;65.61
46506;BME280;32220;49.808;9.968;2023-03-04T02:15:15;99415.38;;;-0.76;66.39
46506;BME280;32220;49.808;9.968;2023-03-04T02:17:43;99412.72;;;-0.71;66.10
46506;BME280;32220;49.808;9.968;2023-03-04T02:20:18;99412.69;;;-0.68;65.99
46506;BME280;32220;49.808;9.968;2023-03-04T02:22:58;99406.63;;;-0.67;65.72
46506;BME280;32220;49.808;9.968;2023-03-04T02:25:32;99392.72;;;-0.64;65.81
46506;BME280;32220;49.808;9.968;2023-03-04T02:28:02;99378.88;;;-0.69;66.62
46506;BME280;32220;49.808;9.968;2023-03-04T02:30:30;99385.78;;;-0.62;68.71
46506;BME280;32220;49.808;9.968;2023-03-04T02:32:58;99395.28;;;-0.61;67.04
46506;BME280;32220;49.808;9.968;2023-03-04T02:35:26;99397.00;;;-0.59;66.83
46506;BME280;32220;49.808;9.968;2023-03-04T02:37:55;99396.97;;;-0.56;66.67
46506;BME280;32220;49.808;9.968;2023-03-04T02:40:27;99398.63;;;-0.47;66.55
46506;BME280;32220;49.808;9.968;2023-03-04T02:42:57;99403.66;;;-0.30;66.58
46506;BME280;32220;49.808;9.968;2023-03-04T02:45:48;99400.84;;;-0.11;66.37
46506;BME280;32220;49.808;9.968;2023-03-04T02:48:18;99388.50;;;0.05;69.27
46506;BME280;32220;49.808;9.968;2023-03-04T02:50:48;99394.44;;;0.19;68.38
46506;BME280;32220;49.808;9.968;2023-03-04T02:53:16;99398.59;;;0.34;67.37
46506;BME280;32220;49.808;9.968;2023-03-04T02:55:44;99397.53;;;0.47;68.49
46506;BME280;32220;49.808;9.968;2023-03-04T02:58:12;99394.78;;;0.58;68.32
46506;BME280;32220;49.808;9.968;2023-03-04T03:00:41;99398.97;;;0.69;67.81
46506;BME280;32220;49.808;9.968;2023-03-04T03:03:10;99393.59;;;0.80;68.53
46506;BME280;32220;49.808;9.968;2023-03-04T03:05:38;99395.19;;;0.89;67.65
46506;BME280;32220;49.808;9.968;2023-03-04T03:08:07;99397.63;;;0.99;67.42
46506;BME280;32220;49.808;9.968;2023-03-04T03:10:35;99384.59;;;0.99;67.40
46506;BME280;32220;49.808;9.968;2023-03-04T03:13:04;99387.84;;;1.14;66.78
46506;BME280;32220;49.808;9.968;2023-03-04T03:15:32;99391.22;;;1.22;67.36
46506;BME280;32220;49.808;9.968;2023-03-04T03:18:00;99379.84;;;1.24;66.68
46506;BME280;32220;49.808;9.968;2023-03-04T03:20:29;99392.88;;;1.26;66.50
46506;BME280;32220;49.808;9.968;2023-03-04T03:22:57;99398.06;;;1.27;66.25
46506;BME280;32220;49.808;9.968;2023-03-04T03:25:24;99392.91;;;1.24;66.00
46506;BME280;32220;49.808;9.968;2023-03-04T03:27:53;99392.78;;;1.32;65.69
46506;BME280;32220;49.808;9.968;2023-03-04T03:30:21;99398.75;;;1.38;65.85
46506;BME280;32220;49.808;9.968;2023-03-04T03:32:49;99392.56;;;1.44;65.55
46506;BME280;32220;49.808;9.968;2023-03-04T03:35:17;99394.19;;;1.51;65.35
46506;BME280;32220;49.808;9.968;2023-03-04T03:37:46;99392.38;;;1.56;65.28
46506;BME280;32220;49.808;9.968;2023-03-04T03:40:14;99379.34;;;1.53;65.99
46506;BME280;32220;49.808;9.968;2023-03-04T03:42:42;99391.28;;;1.68;65.81
46506;BME280;32220;49.808;9.968;2023-03-04T03:45:10;99361.88;;;1.58;65.51
46506;BME280;32220;49.808;9.968;2023-03-04T03:47:37;99378.16;;;1.72;65.43
46506;BME280;32220;49.808;9.968;2023-03-04T03:50:05;99388.38;;;1.85;66.23
46506;BME280;32220;49.808;9.968;2023-03-04T03:52:33;99374.47;;;1.83;65.86
46506;BME280;32220;49.808;9.968;2023-03-04T03:55:03;99386.47;;;1.93;66.08
46506;BME280;32220;49.808;9.968;2023-03-04T03:57:30;99340.78;;;1.69;66.10
46506;BME280;32220;49.808;9.968;2023-03-04T03:59:58;99386.28;;;2.02;66.16
46506;BME280;32220;49.808;9.968;2023-03-04T04:02:25;99393.16;;;2.06;66.18
46506;BME280;32220;49.808;9.968;2023-03-04T04:04:53;99364.72;;;1.92;66.26
46506;BME280;32220;49.808;9.968;2023-03-04T04:07:21;99387.94;;;2.06;66.23
46506;BME280;32220;49.808;9.968;2023-03-04T04:09:48;99395.53;;;2.18;66.10
46506;BME280;32220;49.808;9.968;2023-03-04T04:12:18;99400.72;;;2.21;65.92
46506;BME280;32220;49.808;9.968;2023-03-04T04:14:46;99401.47;;;2.26;65.84
46506;BME280;32220;49.808;9.968;2023-03-04T04:17:14;99399.69;;;2.28;66.05
46506;BME280;32220;49.808;9.968;2023-03-04T04:19:42;99400.50;;;2.30;66.36
46506;BME280;32220;49.808;9.968;2023-03-04T04:22:13;99391.72;;;2.34;66.56
46506;BME280;32220;49.808;9.968;2023-03-04T04:24:41;99389.03;;;2.37;66.72
46506;BME280;32220;49.808;9.968;2023-03-04T04:27:09;99389.84;;;2.39;66.84
46506;BME280;32220;49.808;9.968;2023-03-04T04:29:39;99374.25;;;2.36;66.82
46506;BME280;32220;49.808;9.968;2023-03-04T04:32:06;99386.28;;;2.45;66.85
46506;BME280;32220;49.808;9.968;2023-03-04T04:34:34;99382.69;;;2.49;66.69
46506;BME280;32220;49.808;9.968;2023-03-04T04:37:02;99364.56;;;2.41;67.09
46506;BME280;32220;49.808;9.968;2023-03-04T04:39:29;99377.38;;;2.53;67.37
46506;BME280;32220;49.808;9.968;2023-03-04T04:41:57;99382.53;;;2.57;67.36
46506;BME280;32220;49.808;9.968;2023-03-04T04:44:24;99381.63;;;2.58;67.43
46506;BME280;32220;49.808;9.968;2023-03-04T04:46:54;99378.06;;;2.60;67.61
46506;BME280;32220;49.808;9.968;2023-03-04T04:49:21;99371.94;;;2.61;67.79
46506;BME280;32220;49.808;9.968;2023-03-04T04:51:49;99352.97;;;2.53;67.72
46506;BME280;32220;49.808;9.968;2023-03-04T04:54:18;99386.66;;;2.67;67.80
46506;BME280;32220;49.808;9.968;2023-03-04T04:56:45;99386.59;;;2.70;67.32
46506;BME280;32220;49.808;9.968;2023-03-04T04:59:13;99381.28;;;2.73;67.37
46506;BME280;32220;49.808;9.968;2023-03-04T05:01:40;99379.50;;;2.75;67.48
46506;BME280;32220;49.808;9.968;2023-03-04T05:04:10;99366.59;;;2.67;67.70
46506;BME280;32220;49.808;9.968;2023-03-04T05:06:37;99382.03;;;2.78;67.48
46506;BME280;32220;49.808;9.968;2023-03-04T05:09:05;99365.66;;;2.71;67.94
46506;BME280;32220;49.808;9.968;2023-03-04T05:11:33;99385.50;;;2.80;67.46
46506;BME280;32220;49.808;9.968;2023-03-04T05:14:01;99388.03;;;2.83;67.42
46506;BME280;32220;49.808;9.968;2023-03-04T05:16:28;99375.06;;;2.78;67.61
46506;BME280;32220;49.808;9.968;2023-03-04T05:18:56;99393.19;;;2.86;67.76
46506;BME280;32220;49.808;9.968;2023-03-04T05:21:25;99386.16;;;2.88;67.60
46506;BME280;32220;49.808;9.968;2023-03-04T05:23:53;99384.44;;;2.87;67.33
46506;BME280;32220;49.808;9.968;2023-03-04T05:26:21;99382.66;;;2.89;67.57
46506;BME280;32220;49.808;9.968;2023-03-04T05:28:48;99393.06;;;2.92;67.23
46506;BME280;32220;49.808;9.968;2023-03-04T05:31:16;99387.78;;;2.94;67.64
46506;BME280;32220;49.808;9.968;2023-03-04T05:33:44;99390.38;;;2.95;67.36
46506;BME280;32220;49.808;9.968;2023-03-04T05:36:11;99366.22;;;2.84;67.76
46506;BME280;32220;49.808;9.968;2023-03-04T05:38:40;99369.66;;;2.84;67.27
46506;BME280;32220;49.808;9.968;2023-03-04T05:41:08;99398.13;;;2.98;67.41
46506;BME280;32220;49.808;9.968;2023-03-04T05:43:36;99401.56;;;3.00;66.96
46506;BME280;32220;49.808;9.968;2023-03-04T05:46:08;99396.34;;;3.00;67.47
46506;BME280;32220;49.808;9.968;2023-03-04T05:48:39;99364.53;;;2.81;67.54
46506;BME280;32220;49.808;9.968;2023-03-04T05:51:07;99405.88;;;3.03;67.40
46506;BME280;32220;49.808;9.968;2023-03-04T05:53:34;99399.78;;;3.02;67.07
46506;BME280;32220;49.808;9.968;2023-03-04T05:56:07;99408.31;;;3.10;67.07
46506;BME280;32220;49.808;9.968;2023-03-04T05:58:35;99411.75;;;3.12;66.85
46506;BME280;32220;49.808;9.968;2023-03-04T06:01:04;99416.97;;;3.14;66.61
46506;BME280;32220;49.808;9.968;2023-03-04T06:03:32;99419.50;;;3.17;66.35
46506;BME280;32220;49.808;9.968;2023-03-04T06:06:00;99408.19;;;3.16;66.38
46506;BME280;32220;49.808;9.968;2023-03-04T06:08:27;99417.75;;;3.17;67.00
46506;BME280;32220;49.808;9.968;2023-03-04T06:10:56;99417.72;;;3.19;66.37
46506;BME280;32220;49.808;9.968;2023-03-04T06:13:25;99426.41;;;3.21;66.41
46506;BME280;32220;49.808;9.968;2023-03-04T06:15:54;99427.16;;;3.24;66.18
46506;BME280;32220;49.808;9.968;2023-03-04T06:18:23;99429.78;;;3.24;66.22
46506;BME280;32220;49.808;9.968;2023-03-04T06:20:55;99428.81;;;3.29;66.09
46506;BME280;32220;49.808;9.968;2023-03-04T06:23:22;99428.88;;;3.25;66.15
46506;BME280;32220;49.808;9.968;2023-03-04T06:25:51;99433.16;;;3.30;66.03
46506;BME280;32220;49.808;9.968;2023-03-04T06:28:19;99433.91;;;3.35;65.63
46506;BME280;32220;49.808;9.968;2023-03-04T06:30:50;99440.78;;;3.39;65.63
46506;BME280;32220;49.808;9.968;2023-03-04T06:33:18;99439.91;;;3.40;65.45
46506;BME280;32220;49.808;9.968;2023-03-04T06:35:46;99435.41;;;3.45;65.05
46506;BME280;32220;49.808;9.968;2023-03-04T06:38:13;99433.75;;;3.41;65.02
46506;BME280;32220;49.808;9.968;2023-03-04T06:40:41;99447.44;;;3.52;65.10
46506;BME280;32220;49.808;9.968;2023-03-04T06:43:09;99447.38;;;3.55;64.94
46506;BME280;32220;49.808;9.968;2023-03-04T06:45:37;99456.03;;;3.58;64.67
46506;BME280;32220;49.808;9.968;2023-03-04T06:48:07;99447.22;;;3.61;64.68
46506;BME280;32220;49.808;9.968;2023-03-04T06:50:34;99453.25;;;3.65;64.72
46506;BME280;32220;49.808;9.968;2023-03-04T06:53:02;99442.88;;;3.60;64.33
46506;BME280;32220;49.808;9.968;2023-03-04T06:55:30;99458.28;;;3.72;64.41
46506;BME280;32220;49.808;9.968;2023-03-04T06:57:57;99452.97;;;3.75;64.09
46506;BME280;32220;49.808;9.968;2023-03-04T07:00:25;99464.19;;;3.80;64.02
46506;BME280;32220;49.808;9.968;2023-03-04T07:02:52;99457.16;;;3.82;63.92
46506;BME280;32220;49.808;9.968;2023-03-04T07:05:21;99434.88;;;3.66;64.06
46506;BME280;32220;49.808;9.968;2023-03-04T07:07:49;99458.88;;;3.83;63.66
46506;BME280;32220;49.808;9.968;2023-03-04T07:10:17;99463.81;;;3.95;63.68
46506;BME280;32220;49.808;9.968;2023-03-04T07:12:45;99472.41;;;4.01;63.29
46506;BME280;32220;49.808;9.968;2023-03-04T07:15:19;99474.94;;;4.04;63.04
46506;BME280;32220;49.808;9.968;2023-03-04T07:17:46;99480.13;;;4.07;62.78
46506;BME280;32220;49.808;9.968;2023-03-04T07:20:14;99480.91;;;4.09;62.72
46506;BME280;32220;49.808;9.968;2023-03-04T07:22:43;99478.09;;;4.16;62.90
46506;BME280;32220;49.808;9.968;2023-03-04T07:25:11;99484.88;;;4.23;62.54
46506;BME280;32220;49.808;9.968;2023-03-04T07:27:39;99473.66;;;4.20;62.41
46506;BME280;32220;49.808;9.968;2023-03-04T07:30:08;99490.75;;;4.33;62.08
46506;BME280;32220;49.808;9.968;2023-03-04T07:32:36;99477.75;;;4.30;62.17
46506;BME280;32220;49.808;9.968;2023-03-04T07:35:04;99486.94;;;4.45;62.04
46506;BME280;32220;49.808;9.968;2023-03-04T07:37:32;99485.00;;;4.51;61.86
46506;BME280;32220;49.808;9.968;2023-03-04T07:40:01;99490.03;;;4.59;61.63
46506;BME280;32220;49.808;9.968;2023-03-04T07:42:29;99424.47;;;4.28;61.42
46506;BME280;32220;49.808;9.968;2023-03-04T07:45:04;99493.94;;;4.75;61.16
46506;BME280;32220;49.808;9.968;2023-03-04T07:47:33;99495.53;;;4.81;61.14
46506;BME280;32220;49.808;9.968;2023-03-04T07:50:00;99501.50;;;4.86;60.88
46506;BME280;32220;49.808;9.968;2023-03-04T07:52:28;99497.06;;;4.88;60.81
46506;BME280;32220;49.808;9.968;2023-03-04T07:54:55;99501.19;;;4.96;60.63
46506;BME280;32220;49.808;9.968;2023-03-04T07:57:24;99497.66;;;4.97;60.57
46506;BME280;32220;49.808;9.968;2023-03-04T07:59:52;99504.22;;;5.12;60.33
46506;BME280;32220;49.808;9.968;2023-03-04T08:02:20;99492.00;;;5.11;60.13
46506;BME280;32220;49.808;9.968;2023-03-04T08:04:48;99503.78;;;5.26;59.95
46506;BME280;32220;49.808;9.968;2023-03-04T08:07:16;99507.00;;;5.35;59.57
46506;BME280;32220;49.808;9.968;2023-03-04T08:09:44;99505.91;;;5.43;59.27
46506;BME280;32220;49.808;9.968;2023-03-04T08:12:11;99509.19;;;5.49;58.70
46506;BME280;32220;49.808;9.968;2023-03-04T08:14:41;99506.47;;;5.52;58.73
46506;BME280;32220;49.808;9.968;2023-03-04T08:17:08;99507.03;;;5.62;58.97
46506;BME280;32220;49.808;9.968;2023-03-04T08:19:36;99511.16;;;5.69;58.71
46506;BME280;32220;49.808;9.968;2023-03-04T08:22:04;99487.00;;;5.58;58.52
46506;BME280;32220;49.808;9.968;2023-03-04T08:24:32;99510.13;;;5.74;58.01
46506;BME280;32220;49.808;9.968;2023-03-04T08:27:00;99497.03;;;5.73;58.09
46506;BME280;32220;49.808;9.968;2023-03-04T08:29:28;99520.28;;;5.85;57.77
46506;BME280;32220;49.808;9.968;2023-03-04T08:31:57;99520.94;;;5.93;57.85
46506;BME280;32220;49.808;9.968;2023-03-04T08:34:26;99515.47;;;5.99;57.69
46506;BME280;32220;49.808;9.968;2023-03-04T08:36:54;99517.97;;;6.04;57.15
46506;BME280;32220;49.808;9.968;2023-03-04T08:39:22;99522.22;;;6.06;57.21
46506;BME280;32220;49.808;9.968;2023-03-04T08:41:50;99516.19;;;6.04;57.16
46506;BME280;32220;49.808;9.968;2023-03-04T08:44:17;99535.13;;;6.14;56.68
46506;BME280;32220;49.808;9.968;2023-03-04T08:46:45;99518.59;;;6.10;56.58
46506;BME280;32220;49.808;9.968;2023-03-04T08:49:14;99528.78;;;6.20;56.56
46506;BME280;32220;49.808;9.968;2023-03-04T08:51:42;99537.31;;;6.28;56.41
46506;BME280;32220;49.808;9.968;2023-03-04T08:54:11;99534.63;;;6.29;55.96
46506;BME280;32220;49.808;9.968;2023-03-04T08:56:39;99536.16;;;6.35;56.06
46506;BME280;32220;49.808;9.968;2023-03-04T08:59:07;99521.38;;;6.31;55.84
46506;BME280;32220;49.808;9.968;2023-03-04T09:01:35;99533.34;;;6.41;55.72
46506;BME280;32220;49.808;9.968;2023-03-04T09:04:03;99534.84;;;6.48;55.70
46506;BME280;32220;49.808;9.968;2023-03-04T09:06:32;99542.63;;;6.51;55.38
46506;BME280;32220;49.808;9.968;2023-03-04T09:09:00;99522.59;;;6.47;55.06
46506;BME280;32220;49.808;9.968;2023-03-04T09:11:28;99529.72;;;6.68;55.10
46506;BME280;32220;49.808;9.968;2023-03-04T09:13:56;99523.44;;;6.72;54.90
46506;BME280;32220;49.808;9.968;2023-03-04T09:16:24;99508.59;;;6.70;54.62
46506;BME280;32220;49.808;9.968;2023-03-04T09:18:52;99528.25;;;6.84;54.66
46506;BME280;32220;49.808;9.968;2023-03-04T09:21:20;99533.88;;;6.99;54.62
46506;BME280;32220;49.808;9.968;2023-03-04T09:23:49;99537.81;;;7.10;54.46
46506;BME280;32220;49.808;9.968;2023-03-04T09:26:19;99524.25;;;7.21;54.42
46506;BME280;32220;49.808;9.968;2023-03-04T09:28:49;99532.41;;;7.37;53.72
46506;BME280;32220;49.808;9.968;2023-03-04T09:31:17;99522.97;;;7.31;53.15
46506;BME280;32220;49.808;9.968;2023-03-04T09:33:45;99539.16;;;7.44;52.81
46506;BME280;32220;49.808;9.968;2023-03-04T09:36:14;99526.03;;;7.42;53.03
46506;BME280;32220;49.808;9.968;2023-03-04T09:38:42;99541.19;;;7.59;52.81
46506;BME280;32220;49.808;9.968;2023-03-04T09:41:16;99535.19;;;7.55;52.46
46506;BME280;32220;49.808;9.968;2023-03-04T09:43:46;99547.09;;;7.66;52.12
46506;BME280;32220;49.808;9.968;2023-03-04T09:46:17;99546.16;;;7.67;51.92
46506;BME280;32220;49.808;9.968;2023-03-04T09:48:49;99546.16;;;7.67;51.96
46506;BME280;32220;49.808;9.968;2023-03-04T09:51:20;99544.31;;;7.69;52.18
46506;BME280;32220;49.808;9.968;2023-03-04T09:53:58;99520.06;;;7.61;52.14
46506;BME280;32220;49.808;9.968;2023-03-04T09:56:32;99548.25;;;7.80;51.87
46506;BME280;32220;49.808;9.968;2023-03-04T09:59:07;99542.31;;;7.75;51.86
46506;BME280;32220;49.808;9.968;2023-03-04T10:01:41;99553.88;;;7.93;51.86
46506;BME280;32220;49.808;9.968;2023-03-04T10:04:13;99543.47;;;7.90;51.65
46506;BME280;32220;49.808;9.968;2023-03-04T10:06:46;99558.66;;;8.05;51.16
46506;BME280;32220;49.808;9.968;2023-03-04T10:09:24;99530.03;;;7.96;51.02
46506;BME280;32220;49.808;9.968;2023-03-04T10:12:00;99551.31;;;8.13;51.04
46506;BME280;32220;49.808;9.968;2023-03-04T10:14:34;99550.13;;;8.20;50.90
46506;BME280;32220;49.808;9.968;2023-03-04T10:17:08;99546.38;;;8.26;50.91
46506;BME280;32220;49.808;9.968;2023-03-04T10:19:51;99552.28;;;8.33;50.06
46506;BME280;32220;49.808;9.968;2023-03-04T10:22:26;99529.94;;;8.19;50.00
46506;BME280;32220;49.808;9.968;2023-03-04T10:24:57;99543.44;;;8.34;49.96
46506;BME280;32220;49.808;9.968;2023-03-04T10:27:27;99541.25;;;8.43;50.17
46506;BME280;32220;49.808;9.968;2023-03-04T10:29:58;99547.78;;;8.55;50.52
46506;BME280;32220;49.808;9.968;2023-03-04T10:32:27;99529.97;;;8.60;49.70
46506;BME280;32220;49.808;9.968;2023-03-04T10:34:54;99513.16;;;8.62;50.02
46506;BME280;32220;49.808;9.968;2023-03-04T10:37:22;99532.59;;;8.80;49.19
46506;BME280;32220;49.808;9.968;2023-03-04T10:39:49;99538.47;;;8.87;49.30
46506;BME280;32220;49.808;9.968;2023-03-04T10:42:37;99513.03;;;8.84;49.40
46506;BME280;32220;49.808;9.968;2023-03-04T10:45:19;99540.50;;;9.00;48.14
46506;BME280;32220;49.808;9.968;2023-03-04T10:47:54;99541.56;;;8.96;48.43
46506;BME280;32220;49.808;9.968;2023-03-04T10:50:24;99533.50;;;8.99;48.76
46506;BME280;32220;49.808;9.968;2023-03-04T10:52:53;99548.47;;;8.99;48.20
46506;BME280;32220;49.808;9.968;2023-03-04T10:55:23;99527.03;;;8.86;48.48
46506;BME280;32220;49.808;9.968;2023-03-04T10:57:54;99550.47;;;8.94;48.17
46506;BME280;32220;49.808;9.968;2023-03-04T11:00:26;99516.91;;;8.77;48.36
46506;BME280;32220;49.808;9.968;2023-03-04T11:03:21;99533.50;;;8.99;48.53
46506;BME280;32220;49.808;9.968;2023-03-04T11:05:49;99524.66;;;9.00;48.19
46506;BME280;32220;49.808;9.968;2023-03-04T11:08:22;99527.13;;;9.04;48.61
46506;BME280;32220;49.808;9.968;2023-03-04T11:10:50;99527.53;;;9.15;48.75
46506;BME280;32220;49.808;9.968;2023-03-04T11:13:21;99523.66;;;9.22;48.55
46506;BME280;32220;49.808;9.968;2023-03-04T11:15:51;99523.53;;;9.25;48.35
46506;BME280;32220;49.808;9.968;2023-03-04T11:18:22;99531.66;;;9.20;47.58
46506;BME280;32220;49.808;9.968;2023-03-04T11:20:54;99523.06;;;9.15;47.89
46506;BME280;32220;49.808;9.968;2023-03-04T11:23:28;99496.50;;;8.99;47.98
46506;BME280;32220;49.808;9.968;2023-03-04T11:26:01;99494.06;;;8.95;47.78
46506;BME280;32220;49.808;9.968;2023-03-04T11:28:38;99513.06;;;9.03;47.89
46506;BME280;32220;49.808;9.968;2023-03-04T11:31:13;99521.34;;;8.95;47.78
46506;BME280;32220;49.808;9.968;2023-03-04T11:33:47;99510.78;;;8.95;47.63
46506;BME280;32220;49.808;9.968;2023-03-04T11:36:32;99512.63;;;8.93;47.94
46506;BME280;32220;49.808;9.968;2023-03-04T11:39:02;99512.63;;;8.93;48.09
46506;BME280;32220;49.808;9.968;2023-03-04T11:41:34;99487.75;;;8.79;48.20
46506;BME280;32220;49.808;9.968;2023-03-04T11:44:05;99486.91;;;8.78;48.02
46506;BME280;32220;49.808;9.968;2023-03-04T11:46:54;99507.56;;;8.89;47.87
46506;BME280;32220;49.808;9.968;2023-03-04T11:49:47;99505.06;;;8.86;47.98
46506;BME280;32220;49.808;9.968;2023-03-04T11:52:25;99497.94;;;8.88;47.97
46506;BME280;32220;49.808;9.968;2023-03-04T11:55:17;99501.44;;;8.88;48.12
46506;BME280;32220;49.808;9.968;2023-03-04T11:57:56;99502.34;;;8.87;48.28
46506;BME280;32220;49.808;9.968;2023-03-04T12:00:35;99473.06;;;8.73;48.40
46506;BME280;32220;49.808;9.968;2023-03-04T12:03:31;99491.19;;;8.81;48.13
46506;BME280;32220;49.808;9.968;2023-03-04T12:06:07;99484.13;;;8.81;48.44
46506;BME280;32220;49.808;9.968;2023-03-04T12:08:55;99462.38;;;8.76;48.45
46506;BME280;32220;49.808;9.968;2023-03-04T12:11:31;99474.09;;;8.89;48.10
46506;BME280;32220;49.808;9.968;2023-03-04T12:14:16;99479.06;;;8.95;48.26
46506;BME280;32220;49.808;9.968;2023-03-04T12:17:00;99461.56;;;8.93;48.11
46506;BME280;32220;49.808;9.968;2023-03-04T12:19:42;99460.16;;;8.86;47.94
46506;BME280;32220;49.808;9.968;2023-03-04T12:22:27;99468.72;;;8.91;48.31
46506;BME280;32220;49.808;9.968;2023-03-04T12:28:02;99462.97;;;9.02;48.13
46506;BME280;32220;49.808;9.968;2023-03-04T12:30:43;99460.94;;;9.07;48.18
46506;BME280;32220;49.808;9.968;2023-03-04T12:33:22;99450.44;;;9.05;47.95
46506;BME280;32220;49.808;9.968;2023-03-04T12:36:01;99395.41;;;8.77;48.03
46506;BME280;32220;49.808;9.968;2023-03-04T12:38:43;99454.22;;;9.18;48.08
46506;BME280;32220;49.808;9.968;2023-03-04T12:41:24;99436.72;;;9.16;47.89
46506;BME280;32220;49.808;9.968;2023-03-04T12:44:04;99407.38;;;9.03;47.58
46506;BME280;32220;49.808;9.968;2023-03-04T12:46:39;99442.72;;;9.38;47.85
46506;BME280;32220;49.808;9.968;2023-03-04T12:49:35;99450.81;;;9.52;47.75
46506;BME280;32220;49.808;9.968;2023-03-04T12:52:11;99441.94;;;9.53;47.64
46506;BME280;32220;49.808;9.968;2023-03-04T12:54:42;99447.03;;;9.58;47.47
46506;BME280;32220;49.808;9.968;2023-03-04T12:57:13;99430.63;;;9.51;47.48
46506;BME280;32220;49.808;9.968;2023-03-04T12:59:46;99434.66;;;9.58;47.32
46506;BME280;32220;49.808;9.968;2023-03-04T13:02:30;99443.22;;;9.63;46.77
46506;BME280;32220;49.808;9.968;2023-03-04T13:05:13;99441.28;;;9.67;46.91
46506;BME280;32220;49.808;9.968;2023-03-04T13:07:51;99427.84;;;9.71;47.22
46506;BME280;32220;49.808;9.968;2023-03-04T13:10:22;99433.59;;;9.80;47.46
46506;BME280;32220;49.808;9.968;2023-03-04T13:12:51;99411.03;;;9.72;47.03
46506;BME280;32220;49.808;9.968;2023-03-04T13:15:34;99408.69;;;9.66;46.71
46506;BME280;32220;49.808;9.968;2023-03-04T13:18:30;99424.00;;;9.77;46.99
46506;BME280;32220;49.808;9.968;2023-03-04T13:21:15;99414.03;;;9.65;47.31
46506;BME280;32220;49.808;9.968;2023-03-04T13:23:44;99413.19;;;9.64;47.44
46506;BME280;32220;49.808;9.968;2023-03-04T13:26:17;99414.44;;;9.57;47.27
46506;BME280;32220;49.808;9.968;2023-03-04T13:28:52;99402.47;;;9.50;47.54